sensor_id;sensor_type;location;lat;lon;timestamp;P1;durP1;ratioP1;P2;durP2;ratioP2
45368;SDS011;51342;55.250;37.668;2024-03-02T00:00:31;57.93;;;28.50;;
45368;SDS011;51342;55.250;37.668;2024-03-02T00:03:03;57.63;;;28.53;;
45368;SDS011;51342;55.250;37.668;2024-03-02T00:05:34;54.83;;;27.70;;
45368;SDS011;51342;55.250;37.668;2024-03-02T00:08:06;55.20;;;27.47;;
45368;SDS011;51342;55.250;37.668;2024-03-02T00:10:39;57.80;;;27.13;;
45368;SDS011;51342;55.250;37.668;2024-03-02T00:13:11;53.07;;;27.10;;
45368;SDS011;51342;55.250;37.668;2024-03-02T00:15:47;53.97;;;26.60;;
45368;SDS011;51342;55.250;37.668;2024-03-02T00:18:35;52.03;;;26.57;;
45368;SDS011;51342;55.250;37.668;2024-03-02T00:21:07;55.17;;;25.57;;
45368;SDS011;51342;55.250;37.668;2024-03-02T00:23:44;46.67;;;24.67;;
45368;SDS011;51342;55.250;37.668;2024-03-02T00:26:15;49.23;;;24.10;;
45368;SDS011;51342;55.250;37.668;2024-03-02T00:28:47;45.27;;;24.07;;
45368;SDS011;51342;55.250;37.668;2024-03-02T00:31:21;46.53;;;22.67;;
45368;SDS011;51342;55.250;37.668;2024-03-02T00:33:52;45.00;;;22.20;;
45368;SDS011;51342;55.250;37.668;2024-03-02T00:36:25;46.07;;;22.77;;
45368;SDS011;51342;55.250;37.668;2024-03-02T00:39:00;45.40;;;22.03;;
45368;SDS011;51342;55.250;37.668;2024-03-02T00:41:31;45.70;;;22.13;;
45368;SDS011;51342;55.250;37.668;2024-03-02T00:44:06;48.53;;;22.87;;
45368;SDS011;51342;55.250;37.668;2024-03-02T00:46:39;42.13;;;22.27;;
45368;SDS011;51342;55.250;37.668;2024-03-02T00:49:17;44.63;;;22.37;;
45368;SDS011;51342;55.250;37.668;2024-03-02T00:51:51;43.93;;;22.20;;
45368;SDS011;51342;55.250;37.668;2024-03-02T00:54:25;52.33;;;25.57;;
45368;SDS011;51342;55.250;37.668;2024-03-02T00:56:57;50.43;;;24.93;;
45368;SDS011;51342;55.250;37.668;2024-03-02T00:59:29;53.50;;;26.47;;
45368;SDS011;51342;55.250;37.668;2024-03-02T01:02:02;48.50;;;24.53;;
45368;SDS011;51342;55.250;37.668;2024-03-02T01:04:34;56.93;;;27.97;;
45368;SDS011;51342;55.250;37.668;2024-03-02T01:07:05;55.13;;;26.77;;
45368;SDS011;51342;55.250;37.668;2024-03-02T01:09:37;57.43;;;28.90;;
45368;SDS011;51342;55.250;37.668;2024-03-02T01:12:08;57.00;;;27.17;;
45368;SDS011;51342;55.250;37.668;2024-03-02T01:14:40;50.70;;;27.00;;
45368;SDS011;51342;55.250;37.668;2024-03-02T01:17:11;52.97;;;26.90;;
45368;SDS011;51342;55.250;37.668;2024-03-02T01:19:43;54.67;;;27.13;;
45368;SDS011;51342;55.250;37.668;2024-03-02T01:22:14;53.00;;;26.30;;
45368;SDS011;51342;55.250;37.668;2024-03-02T01:24:46;57.77;;;27.77;;
45368;SDS011;51342;55.250;37.668;2024-03-02T01:27:17;53.13;;;25.07;;
45368;SDS011;51342;55.250;37.668;2024-03-02T01:29:49;54.33;;;27.40;;
45368;SDS011;51342;55.250;37.668;2024-03-02T01:32:21;55.07;;;26.97;;
45368;SDS011;51342;55.250;37.668;2024-03-02T01:34:52;59.40;;;26.60;;
45368;SDS011;51342;55.250;37.668;2024-03-02T01:37:24;56.93;;;27.17;;
45368;SDS011;51342;55.250;37.668;2024-03-02T01:39:55;59.27;;;27.57;;
45368;SDS011;51342;55.250;37.668;2024-03-02T01:42:27;58.10;;;29.00;;
45368;SDS011;51342;55.250;37.668;2024-03-02T01:44:58;54.27;;;27.40;;
45368;SDS011;51342;55.250;37.668;2024-03-02T01:47:30;50.83;;;25.67;;
45368;SDS011;51342;55.250;37.668;2024-03-02T01:50:01;59.63;;;26.77;;
45368;SDS011;51342;55.250;37.668;2024-03-02T01:52:33;59.73;;;25.20;;
45368;SDS011;51342;55.250;37.668;2024-03-02T01:55:04;55.93;;;26.83;;
45368;SDS011;51342;55.250;37.668;2024-03-02T01:57:37;55.33;;;25.23;;
45368;SDS011;51342;55.250;37.668;2024-03-02T02:00:08;57.37;;;26.47;;
45368;SDS011;51342;55.250;37.668;2024-03-02T02:02:43;55.07;;;26.03;;
45368;SDS011;51342;55.250;37.668;2024-03-02T02:05:15;53.53;;;26.43;;
45368;SDS011;51342;55.250;37.668;2024-03-02T02:07:47;62.87;;;27.03;;
45368;SDS011;51342;55.250;37.668;2024-03-02T02:10:18;58.90;;;26.27;;
45368;SDS011;51342;55.250;37.668;2024-03-02T02:12:50;57.73;;;27.50;;
45368;SDS011;51342;55.250;37.668;2024-03-02T02:15:28;60.20;;;26.43;;
45368;SDS011;51342;55.250;37.668;2024-03-02T02:18:01;56.67;;;25.93;;
45368;SDS011;51342;55.250;37.668;2024-03-02T02:20:34;55.87;;;26.17;;
45368;SDS011;51342;55.250;37.668;2024-03-02T02:23:06;61.63;;;26.87;;
45368;SDS011;51342;55.250;37.668;2024-03-02T02:25:39;58.87;;;27.17;;
45368;SDS011;51342;55.250;37.668;2024-03-02T02:28:10;57.23;;;27.03;;
45368;SDS011;51342;55.250;37.668;2024-03-02T02:30:42;54.53;;;26.63;;
45368;SDS011;51342;55.250;37.668;2024-03-02T02:33:13;57.27;;;27.30;;
45368;SDS011;51342;55.250;37.668;2024-03-02T02:35:45;50.13;;;26.57;;
45368;SDS011;51342;55.250;37.668;2024-03-02T02:38:16;58.13;;;26.93;;
45368;SDS011;51342;55.250;37.668;2024-03-02T02:40:48;53.43;;;25.93;;
45368;SDS011;51342;55.250;37.668;2024-03-02T02:43:19;50.73;;;24.17;;
45368;SDS011;51342;55.250;37.668;2024-03-02T02:45:51;49.13;;;23.93;;
45368;SDS011;51342;55.250;37.668;2024-03-02T02:48:22;51.97;;;24.37;;
45368;SDS011;51342;55.250;37.668;2024-03-02T02:50:53;44.37;;;23.57;;
45368;SDS011;51342;55.250;37.668;2024-03-02T02:53:25;50.37;;;24.20;;
45368;SDS011;51342;55.250;37.668;2024-03-02T02:55:56;49.17;;;24.60;;
45368;SDS011;51342;55.250;37.668;2024-03-02T02:58:28;41.43;;;23.13;;
45368;SDS011;51342;55.250;37.668;2024-03-02T03:00:59;45.53;;;24.97;;
45368;SDS011;51342;55.250;37.668;2024-03-02T03:03:30;45.20;;;23.60;;
45368;SDS011;51342;55.250;37.668;2024-03-02T03:06:02;47.27;;;25.43;;
45368;SDS011;51342;55.250;37.668;2024-03-02T03:08:34;51.40;;;24.70;;
45368;SDS011;51342;55.250;37.668;2024-03-02T03:11:05;48.03;;;24.73;;
45368;SDS011;51342;55.250;37.668;2024-03-02T03:13:37;46.57;;;25.83;;
45368;SDS011;51342;55.250;37.668;2024-03-02T03:16:08;52.53;;;25.00;;
45368;SDS011;51342;55.250;37.668;2024-03-02T03:18:39;47.93;;;24.23;;
45368;SDS011;51342;55.250;37.668;2024-03-02T03:21:11;53.07;;;25.67;;
45368;SDS011;51342;55.250;37.668;2024-03-02T03:23:42;55.83;;;26.63;;
45368;SDS011;51342;55.250;37.668;2024-03-02T03:26:14;73.07;;;30.43;;
45368;SDS011;51342;55.250;37.668;2024-03-02T03:28:45;58.83;;;26.93;;
45368;SDS011;51342;55.250;37.668;2024-03-02T03:31:16;62.27;;;28.20;;
45368;SDS011;51342;55.250;37.668;2024-03-02T03:33:48;58.50;;;27.03;;
45368;SDS011;51342;55.250;37.668;2024-03-02T03:36:19;54.03;;;26.40;;
45368;SDS011;51342;55.250;37.668;2024-03-02T03:38:51;47.27;;;24.70;;
45368;SDS011;51342;55.250;37.668;2024-03-02T03:41:22;44.40;;;24.73;;
45368;SDS011;51342;55.250;37.668;2024-03-02T03:43:54;42.53;;;22.73;;
45368;SDS011;51342;55.250;37.668;2024-03-02T03:46:25;42.17;;;20.60;;
45368;SDS011;51342;55.250;37.668;2024-03-02T03:48:57;41.93;;;20.93;;
45368;SDS011;51342;55.250;37.668;2024-03-02T03:51:28;40.17;;;20.80;;
45368;SDS011;51342;55.250;37.668;2024-03-02T03:54:00;42.60;;;22.30;;
45368;SDS011;51342;55.250;37.668;2024-03-02T03:56:31;40.47;;;21.50;;
45368;SDS011;51342;55.250;37.668;2024-03-02T03:59:03;41.87;;;22.30;;
45368;SDS011;51342;55.250;37.668;2024-03-02T04:01:35;39.73;;;21.77;;
45368;SDS011;51342;55.250;37.668;2024-03-02T04:04:07;45.33;;;22.53;;
45368;SDS011;51342;55.250;37.668;2024-03-02T04:06:38;46.47;;;23.60;;
45368;SDS011;51342;55.250;37.668;2024-03-02T04:09:09;49.47;;;24.10;;
45368;SDS011;51342;55.250;37.668;2024-03-02T04:11:41;45.03;;;23.90;;
45368;SDS011;51342;55.250;37.668;2024-03-02T04:14:12;47.33;;;24.10;;
45368;SDS011;51342;55.250;37.668;2024-03-02T04:16:44;47.67;;;23.10;;
45368;SDS011;51342;55.250;37.668;2024-03-02T04:19:15;45.73;;;23.87;;
45368;SDS011;51342;55.250;37.668;2024-03-02T04:21:47;44.73;;;24.17;;
45368;SDS011;51342;55.250;37.668;2024-03-02T04:24:18;48.17;;;23.87;;
45368;SDS011;51342;55.250;37.668;2024-03-02T04:26:49;48.43;;;24.57;;
45368;SDS011;51342;55.250;37.668;2024-03-02T04:29:21;46.47;;;25.07;;
45368;SDS011;51342;55.250;37.668;2024-03-02T04:31:52;44.80;;;24.03;;
45368;SDS011;51342;55.250;37.668;2024-03-02T04:34:24;50.50;;;24.87;;
45368;SDS011;51342;55.250;37.668;2024-03-02T04:36:55;50.37;;;23.67;;
45368;SDS011;51342;55.250;37.668;2024-03-02T04:39:27;47.90;;;25.13;;
45368;SDS011;51342;55.250;37.668;2024-03-02T04:41:59;46.73;;;24.20;;
45368;SDS011;51342;55.250;37.668;2024-03-02T04:44:31;44.03;;;24.73;;
45368;SDS011;51342;55.250;37.668;2024-03-02T04:47:02;55.40;;;26.57;;
45368;SDS011;51342;55.250;37.668;2024-03-02T04:49:34;55.67;;;25.40;;
45368;SDS011;51342;55.250;37.668;2024-03-02T04:52:05;51.63;;;26.17;;
45368;SDS011;51342;55.250;37.668;2024-03-02T04:54:37;49.33;;;24.93;;
45368;SDS011;51342;55.250;37.668;2024-03-02T04:57:28;47.07;;;24.80;;
45368;SDS011;51342;55.250;37.668;2024-03-02T04:59:59;49.30;;;25.93;;
45368;SDS011;51342;55.250;37.668;2024-03-02T05:02:31;55.07;;;25.57;;
45368;SDS011;51342;55.250;37.668;2024-03-02T05:05:03;50.93;;;25.77;;
45368;SDS011;51342;55.250;37.668;2024-03-02T05:07:35;52.77;;;26.17;;
45368;SDS011;51342;55.250;37.668;2024-03-02T05:10:06;46.53;;;25.73;;
45368;SDS011;51342;55.250;37.668;2024-03-02T05:12:38;51.50;;;25.87;;
45368;SDS011;51342;55.250;37.668;2024-03-02T05:15:15;51.05;;;25.80;;
45368;SDS011;51342;55.250;37.668;2024-03-02T05:17:47;52.73;;;27.50;;
45368;SDS011;51342;55.250;37.668;2024-03-02T05:20:18;54.83;;;28.53;;
45368;SDS011;51342;55.250;37.668;2024-03-02T05:22:50;63.90;;;30.53;;
45368;SDS011;51342;55.250;37.668;2024-03-02T05:25:21;53.60;;;28.60;;
45368;SDS011;51342;55.250;37.668;2024-03-02T05:27:53;45.17;;;24.53;;
45368;SDS011;51342;55.250;37.668;2024-03-02T05:30:25;41.83;;;22.57;;
45368;SDS011;51342;55.250;37.668;2024-03-02T05:32:57;49.23;;;23.80;;
45368;SDS011;51342;55.250;37.668;2024-03-02T05:35:29;47.60;;;24.13;;
45368;SDS011;51342;55.250;37.668;2024-03-02T05:38:00;45.77;;;24.83;;
45368;SDS011;51342;55.250;37.668;2024-03-02T05:40:31;52.40;;;27.13;;
45368;SDS011;51342;55.250;37.668;2024-03-02T05:43:03;55.33;;;29.30;;
45368;SDS011;51342;55.250;37.668;2024-03-02T05:45:34;51.20;;;27.13;;
45368;SDS011;51342;55.250;37.668;2024-03-02T05:48:07;59.10;;;30.30;;
45368;SDS011;51342;55.250;37.668;2024-03-02T05:50:38;58.90;;;30.43;;
45368;SDS011;51342;55.250;37.668;2024-03-02T05:53:10;59.30;;;29.27;;
45368;SDS011;51342;55.250;37.668;2024-03-02T05:55:41;62.73;;;31.97;;
45368;SDS011;51342;55.250;37.668;2024-03-02T05:58:13;65.47;;;33.50;;
45368;SDS011;51342;55.250;37.668;2024-03-02T06:01:22;71.77;;;35.10;;
45368;SDS011;51342;55.250;37.668;2024-03-02T06:03:59;68.73;;;35.27;;
45368;SDS011;51342;55.250;37.668;2024-03-02T06:06:30;75.10;;;37.40;;
45368;SDS011;51342;55.250;37.668;2024-03-02T06:09:04;76.23;;;38.03;;
45368;SDS011;51342;55.250;37.668;2024-03-02T06:11:39;78.07;;;38.83;;
45368;SDS011;51342;55.250;37.668;2024-03-02T06:14:11;72.47;;;38.07;;
45368;SDS011;51342;55.250;37.668;2024-03-02T06:16:43;67.90;;;37.43;;
45368;SDS011;51342;55.250;37.668;2024-03-02T06:19:14;72.67;;;36.63;;
45368;SDS011;51342;55.250;37.668;2024-03-02T06:21:46;77.73;;;40.43;;
45368;SDS011;51342;55.250;37.668;2024-03-02T06:24:17;70.53;;;39.40;;
45368;SDS011;51342;55.250;37.668;2024-03-02T06:26:50;70.37;;;39.50;;
45368;SDS011;51342;55.250;37.668;2024-03-02T06:29:22;75.90;;;38.83;;
45368;SDS011;51342;55.250;37.668;2024-03-02T06:31:53;72.07;;;40.73;;
45368;SDS011;51342;55.250;37.668;2024-03-02T06:34:25;68.23;;;36.47;;
45368;SDS011;51342;55.250;37.668;2024-03-02T06:36:56;66.13;;;37.53;;
45368;SDS011;51342;55.250;37.668;2024-03-02T06:39:28;68.33;;;38.50;;
45368;SDS011;51342;55.250;37.668;2024-03-02T06:42:00;70.33;;;38.67;;
45368;SDS011;51342;55.250;37.668;2024-03-02T06:44:31;65.83;;;37.73;;
45368;SDS011;51342;55.250;37.668;2024-03-02T06:47:02;63.90;;;36.43;;
45368;SDS011;51342;55.250;37.668;2024-03-02T06:49:35;59.77;;;34.57;;
45368;SDS011;51342;55.250;37.668;2024-03-02T06:52:06;62.87;;;33.87;;
45368;SDS011;51342;55.250;37.668;2024-03-02T06:54:38;64.03;;;35.70;;
45368;SDS011;51342;55.250;37.668;2024-03-02T06:57:09;61.73;;;35.60;;
45368;SDS011;51342;55.250;37.668;2024-03-02T06:59:41;60.53;;;35.37;;
45368;SDS011;51342;55.250;37.668;2024-03-02T07:02:13;60.37;;;34.60;;
45368;SDS011;51342;55.250;37.668;2024-03-02T07:04:45;63.50;;;36.37;;
45368;SDS011;51342;55.250;37.668;2024-03-02T07:07:16;58.40;;;35.13;;
45368;SDS011;51342;55.250;37.668;2024-03-02T07:09:48;64.33;;;34.73;;
45368;SDS011;51342;55.250;37.668;2024-03-02T07:12:19;54.73;;;34.30;;
45368;SDS011;51342;55.250;37.668;2024-03-02T07:14:51;54.07;;;31.27;;
45368;SDS011;51342;55.250;37.668;2024-03-02T07:17:34;53.00;;;30.00;;
45368;SDS011;51342;55.250;37.668;2024-03-02T07:20:08;48.13;;;31.27;;
45368;SDS011;51342;55.250;37.668;2024-03-02T07:22:40;48.30;;;29.63;;
45368;SDS011;51342;55.250;37.668;2024-03-02T07:25:11;49.50;;;29.77;;
45368;SDS011;51342;55.250;37.668;2024-03-02T07:27:43;49.37;;;28.30;;
45368;SDS011;51342;55.250;37.668;2024-03-02T07:30:15;44.70;;;27.97;;
45368;SDS011;51342;55.250;37.668;2024-03-02T07:32:49;45.60;;;27.47;;
45368;SDS011;51342;55.250;37.668;2024-03-02T07:35:22;46.57;;;27.50;;
45368;SDS011;51342;55.250;37.668;2024-03-02T07:37:57;41.47;;;24.87;;
45368;SDS011;51342;55.250;37.668;2024-03-02T07:40:29;42.87;;;26.30;;
45368;SDS011;51342;55.250;37.668;2024-03-02T07:43:00;38.30;;;24.77;;
45368;SDS011;51342;55.250;37.668;2024-03-02T07:45:32;40.00;;;24.43;;
45368;SDS011;51342;55.250;37.668;2024-03-02T07:48:03;33.00;;;20.20;;
45368;SDS011;51342;55.250;37.668;2024-03-02T07:50:35;36.40;;;22.70;;
45368;SDS011;51342;55.250;37.668;2024-03-02T07:53:08;40.03;;;23.37;;
45368;SDS011;51342;55.250;37.668;2024-03-02T07:55:40;31.77;;;19.53;;
45368;SDS011;51342;55.250;37.668;2024-03-02T07:58:11;32.23;;;19.10;;
45368;SDS011;51342;55.250;37.668;2024-03-02T08:00:44;29.43;;;18.50;;
45368;SDS011;51342;55.250;37.668;2024-03-02T08:03:15;32.43;;;17.83;;
45368;SDS011;51342;55.250;37.668;2024-03-02T08:05:47;32.37;;;19.57;;
45368;SDS011;51342;55.250;37.668;2024-03-02T08:08:18;31.03;;;17.73;;
45368;SDS011;51342;55.250;37.668;2024-03-02T08:10:50;32.17;;;17.40;;
45368;SDS011;51342;55.250;37.668;2024-03-02T08:13:22;29.83;;;16.47;;
45368;SDS011;51342;55.250;37.668;2024-03-02T08:15:53;31.20;;;17.67;;
45368;SDS011;51342;55.250;37.668;2024-03-02T08:18:28;31.17;;;18.33;;
45368;SDS011;51342;55.250;37.668;2024-03-02T08:21:00;30.93;;;18.80;;
45368;SDS011;51342;55.250;37.668;2024-03-02T08:23:32;29.20;;;17.03;;
45368;SDS011;51342;55.250;37.668;2024-03-02T08:26:05;29.67;;;17.33;;
45368;SDS011;51342;55.250;37.668;2024-03-02T08:28:36;32.80;;;18.67;;
45368;SDS011;51342;55.250;37.668;2024-03-02T08:31:09;31.43;;;18.33;;
45368;SDS011;51342;55.250;37.668;2024-03-02T08:33:41;28.97;;;18.67;;
45368;SDS011;51342;55.250;37.668;2024-03-02T08:36:13;33.07;;;19.50;;
45368;SDS011;51342;55.250;37.668;2024-03-02T08:38:48;32.50;;;18.20;;
45368;SDS011;51342;55.250;37.668;2024-03-02T08:41:22;31.87;;;18.97;;
45368;SDS011;51342;55.250;37.668;2024-03-02T08:43:57;27.23;;;17.27;;
45368;SDS011;51342;55.250;37.668;2024-03-02T08:46:29;33.30;;;20.40;;
45368;SDS011;51342;55.250;37.668;2024-03-02T08:49:01;31.97;;;21.50;;
45368;SDS011;51342;55.250;37.668;2024-03-02T08:51:33;35.40;;;20.70;;
45368;SDS011;51342;55.250;37.668;2024-03-02T08:54:05;34.07;;;21.97;;
45368;SDS011;51342;55.250;37.668;2024-03-02T08:56:39;34.53;;;21.00;;
45368;SDS011;51342;55.250;37.668;2024-03-02T08:59:14;34.53;;;21.23;;
45368;SDS011;51342;55.250;37.668;2024-03-02T09:01:46;34.13;;;21.90;;
45368;SDS011;51342;55.250;37.668;2024-03-02T09:04:18;34.93;;;22.13;;
45368;SDS011;51342;55.250;37.668;2024-03-02T09:06:50;35.70;;;21.57;;
45368;SDS011;51342;55.250;37.668;2024-03-02T09:09:22;35.37;;;22.03;;
45368;SDS011;51342;55.250;37.668;2024-03-02T09:11:54;37.67;;;22.03;;
45368;SDS011;51342;55.250;37.668;2024-03-02T09:14:28;37.40;;;22.10;;
45368;SDS011;51342;55.250;37.668;2024-03-02T09:17:01;37.43;;;22.67;;
45368;SDS011;51342;55.250;37.668;2024-03-02T09:19:33;41.83;;;24.73;;
45368;SDS011;51342;55.250;37.668;2024-03-02T09:22:08;36.97;;;23.53;;
45368;SDS011;51342;55.250;37.668;2024-03-02T09:24:40;36.47;;;23.17;;
45368;SDS011;51342;55.250;37.668;2024-03-02T09:27:12;39.87;;;24.07;;
45368;SDS011;51342;55.250;37.668;2024-03-02T09:29:46;40.43;;;25.10;;
45368;SDS011;51342;55.250;37.668;2024-03-02T09:32:18;38.23;;;24.90;;
45368;SDS011;51342;55.250;37.668;2024-03-02T09:34:53;38.27;;;21.50;;
45368;SDS011;51342;55.250;37.668;2024-03-02T09:37:28;36.70;;;24.63;;
45368;SDS011;51342;55.250;37.668;2024-03-02T09:40:01;41.03;;;25.43;;
45368;SDS011;51342;55.250;37.668;2024-03-02T09:42:33;35.93;;;23.30;;
45368;SDS011;51342;55.250;37.668;2024-03-02T09:45:15;35.73;;;22.20;;
45368;SDS011;51342;55.250;37.668;2024-03-02T09:47:55;34.57;;;21.77;;
45368;SDS011;51342;55.250;37.668;2024-03-02T09:50:30;37.27;;;23.13;;
45368;SDS011;51342;55.250;37.668;2024-03-02T09:53:06;36.47;;;22.13;;
45368;SDS011;51342;55.250;37.668;2024-03-02T09:55:47;37.70;;;23.47;;
45368;SDS011;51342;55.250;37.668;2024-03-02T09:58:22;38.00;;;23.10;;
45368;SDS011;51342;55.250;37.668;2024-03-02T10:00:54;39.57;;;23.33;;
45368;SDS011;51342;55.250;37.668;2024-03-02T10:03:27;38.17;;;24.50;;
45368;SDS011;51342;55.250;37.668;2024-03-02T10:06:25;36.43;;;23.80;;
45368;SDS011;51342;55.250;37.668;2024-03-02T10:08:58;40.30;;;24.83;;
45368;SDS011;51342;55.250;37.668;2024-03-02T10:11:35;40.83;;;24.87;;
45368;SDS011;51342;55.250;37.668;2024-03-02T10:14:20;41.57;;;25.17;;
45368;SDS011;51342;55.250;37.668;2024-03-02T10:16:54;38.23;;;24.17;;
45368;SDS011;51342;55.250;37.668;2024-03-02T10:19:38;40.53;;;24.00;;
45368;SDS011;51342;55.250;37.668;2024-03-02T10:22:18;40.53;;;24.92;;
45368;SDS011;51342;55.250;37.668;2024-03-02T10:24:49;36.50;;;23.10;;
45368;SDS011;51342;55.250;37.668;2024-03-02T10:27:26;37.80;;;23.97;;
45368;SDS011;51342;55.250;37.668;2024-03-02T10:29:58;40.28;;;23.48;;
45368;SDS011;51342;55.250;37.668;2024-03-02T10:35:11;29.80;;;20.10;;
45368;SDS011;51342;55.250;37.668;2024-03-02T10:37:43;31.77;;;22.00;;
45368;SDS011;51342;55.250;37.668;2024-03-02T10:40:15;40.40;;;23.47;;
45368;SDS011;51342;55.250;37.668;2024-03-02T10:42:47;34.33;;;21.70;;
45368;SDS011;51342;55.250;37.668;2024-03-02T10:45:22;33.63;;;21.27;;
45368;SDS011;51342;55.250;37.668;2024-03-02T10:48:01;32.63;;;19.90;;
45368;SDS011;51342;55.250;37.668;2024-03-02T10:50:33;34.40;;;21.10;;
45368;SDS011;51342;55.250;37.668;2024-03-02T10:53:05;33.83;;;21.63;;
45368;SDS011;51342;55.250;37.668;2024-03-02T10:55:37;31.57;;;21.03;;
45368;SDS011;51342;55.250;37.668;2024-03-02T10:58:10;35.50;;;22.10;;
45368;SDS011;51342;55.250;37.668;2024-03-02T11:00:48;35.70;;;22.50;;
45368;SDS011;51342;55.250;37.668;2024-03-02T11:03:25;37.40;;;23.42;;
45368;SDS011;51342;55.250;37.668;2024-03-02T11:05:58;24.83;;;15.23;;
45368;SDS011;51342;55.250;37.668;2024-03-02T11:08:33;20.90;;;13.63;;
45368;SDS011;51342;55.250;37.668;2024-03-02T11:11:10;19.13;;;13.13;;
45368;SDS011;51342;55.250;37.668;2024-03-02T11:13:49;21.80;;;14.00;;
45368;SDS011;51342;55.250;37.668;2024-03-02T11:16:32;22.97;;;15.10;;
45368;SDS011;51342;55.250;37.668;2024-03-02T11:19:17;19.87;;;13.17;;
45368;SDS011;51342;55.250;37.668;2024-03-02T11:21:50;20.67;;;13.93;;
45368;SDS011;51342;55.250;37.668;2024-03-02T11:27:20;23.17;;;15.67;;
45368;SDS011;51342;55.250;37.668;2024-03-02T11:33:11;27.30;;;17.10;;
45368;SDS011;51342;55.250;37.668;2024-03-02T11:35:46;27.25;;;17.40;;
45368;SDS011;51342;55.250;37.668;2024-03-02T11:38:24;23.50;;;16.33;;
45368;SDS011;51342;55.250;37.668;2024-03-02T11:41:03;24.50;;;16.43;;
45368;SDS011;51342;55.250;37.668;2024-03-02T11:59:05;32.23;;;21.67;;
45368;SDS011;51342;55.250;37.668;2024-03-02T12:01:37;29.73;;;21.03;;
45368;SDS011;51342;55.250;37.668;2024-03-02T12:04:09;33.07;;;21.10;;
45368;SDS011;51342;55.250;37.668;2024-03-02T12:06:41;29.57;;;21.13;;
45368;SDS011;51342;55.250;37.668;2024-03-02T12:09:13;31.77;;;21.93;;
45368;SDS011;51342;55.250;37.668;2024-03-02T12:11:45;32.80;;;22.27;;
45368;SDS011;51342;55.250;37.668;2024-03-02T12:14:17;37.67;;;24.50;;
45368;SDS011;51342;55.250;37.668;2024-03-02T12:16:48;36.07;;;23.53;;
45368;SDS011;51342;55.250;37.668;2024-03-02T12:19:20;39.97;;;26.87;;
45368;SDS011;51342;55.250;37.668;2024-03-02T12:21:52;35.80;;;23.43;;
45368;SDS011;51342;55.250;37.668;2024-03-02T12:24:24;33.60;;;23.13;;
45368;SDS011;51342;55.250;37.668;2024-03-02T12:26:58;36.67;;;24.93;;
45368;SDS011;51342;55.250;37.668;2024-03-02T12:29:30;45.07;;;30.07;;
45368;SDS011;51342;55.250;37.668;2024-03-02T12:32:02;37.33;;;23.73;;
45368;SDS011;51342;55.250;37.668;2024-03-02T12:34:33;38.90;;;25.73;;
45368;SDS011;51342;55.250;37.668;2024-03-02T12:37:05;37.63;;;25.57;;
45368;SDS011;51342;55.250;37.668;2024-03-02T12:39:36;38.87;;;27.47;;
45368;SDS011;51342;55.250;37.668;2024-03-02T12:42:08;36.23;;;24.60;;
45368;SDS011;51342;55.250;37.668;2024-03-02T12:44:39;42.03;;;28.13;;
45368;SDS011;51342;55.250;37.668;2024-03-02T12:47:11;37.73;;;27.10;;
45368;SDS011;51342;55.250;37.668;2024-03-02T12:49:44;35.63;;;24.23;;
45368;SDS011;51342;55.250;37.668;2024-03-02T12:52:16;33.87;;;24.43;;
45368;SDS011;51342;55.250;37.668;2024-03-02T12:54:49;36.23;;;22.53;;
45368;SDS011;51342;55.250;37.668;2024-03-02T12:57:21;35.10;;;22.73;;
45368;SDS011;51342;55.250;37.668;2024-03-02T12:59:52;35.57;;;23.50;;
45368;SDS011;51342;55.250;37.668;2024-03-02T13:02:26;33.93;;;23.70;;
45368;SDS011;51342;55.250;37.668;2024-03-02T13:04:59;34.33;;;23.33;;
45368;SDS011;51342;55.250;37.668;2024-03-02T13:07:30;32.40;;;21.07;;
45368;SDS011;51342;55.250;37.668;2024-03-02T13:10:02;32.83;;;22.63;;
45368;SDS011;51342;55.250;37.668;2024-03-02T13:12:34;34.50;;;23.30;;
45368;SDS011;51342;55.250;37.668;2024-03-02T13:15:07;30.37;;;21.90;;
45368;SDS011;51342;55.250;37.668;2024-03-02T13:17:39;35.23;;;23.17;;
45368;SDS011;51342;55.250;37.668;2024-03-02T13:20:10;34.97;;;23.37;;
45368;SDS011;51342;55.250;37.668;2024-03-02T13:22:42;30.80;;;21.67;;
45368;SDS011;51342;55.250;37.668;2024-03-02T13:25:13;33.37;;;22.07;;
45368;SDS011;51342;55.250;37.668;2024-03-02T13:27:45;36.83;;;22.07;;
45368;SDS011;51342;55.250;37.668;2024-03-02T13:30:17;30.00;;;19.30;;
45368;SDS011;51342;55.250;37.668;2024-03-02T13:32:48;31.83;;;19.67;;
45368;SDS011;51342;55.250;37.668;2024-03-02T13:35:20;30.93;;;21.33;;
45368;SDS011;51342;55.250;37.668;2024-03-02T13:37:51;31.17;;;19.23;;
45368;SDS011;51342;55.250;37.668;2024-03-02T13:40:22;28.90;;;18.50;;
45368;SDS011;51342;55.250;37.668;2024-03-02T13:42:54;27.70;;;17.53;;
45368;SDS011;51342;55.250;37.668;2024-03-02T13:45:26;30.30;;;19.00;;
45368;SDS011;51342;55.250;37.668;2024-03-02T13:47:58;28.17;;;18.67;;
45368;SDS011;51342;55.250;37.668;2024-03-02T13:50:31;27.50;;;17.60;;
45368;SDS011;51342;55.250;37.668;2024-03-02T13:53:03;29.93;;;20.30;;
45368;SDS011;51342;55.250;37.668;2024-03-02T13:55:35;31.77;;;20.70;;
45368;SDS011;51342;55.250;37.668;2024-03-02T13:58:07;34.40;;;21.17;;
45368;SDS011;51342;55.250;37.668;2024-03-02T14:00:38;34.23;;;21.93;;
45368;SDS011;51342;55.250;37.668;2024-03-02T14:03:10;34.03;;;22.20;;
45368;SDS011;51342;55.250;37.668;2024-03-02T14:05:42;33.53;;;21.03;;
45368;SDS011;51342;55.250;37.668;2024-03-02T14:08:14;37.73;;;23.13;;
45368;SDS011;51342;55.250;37.668;2024-03-02T14:10:45;37.10;;;23.07;;
45368;SDS011;51342;55.250;37.668;2024-03-02T14:13:17;32.80;;;21.97;;
45368;SDS011;51342;55.250;37.668;2024-03-02T14:15:48;38.50;;;24.33;;
45368;SDS011;51342;55.250;37.668;2024-03-02T14:18:20;37.83;;;21.73;;
45368;SDS011;51342;55.250;37.668;2024-03-02T14:20:52;35.17;;;22.87;;
45368;SDS011;51342;55.250;37.668;2024-03-02T14:23:23;35.97;;;22.10;;
45368;SDS011;51342;55.250;37.668;2024-03-02T14:25:56;34.47;;;21.53;;
45368;SDS011;51342;55.250;37.668;2024-03-02T14:28:30;38.77;;;23.07;;
45368;SDS011;51342;55.250;37.668;2024-03-02T14:31:01;37.53;;;22.60;;
45368;SDS011;51342;55.250;37.668;2024-03-02T14:33:33;42.37;;;25.60;;
45368;SDS011;51342;55.250;37.668;2024-03-02T14:36:05;39.27;;;24.87;;
45368;SDS011;51342;55.250;37.668;2024-03-02T14:38:38;39.83;;;25.20;;
45368;SDS011;51342;55.250;37.668;2024-03-02T14:41:09;35.37;;;23.03;;
45368;SDS011;51342;55.250;37.668;2024-03-02T14:43:41;40.03;;;23.60;;
45368;SDS011;51342;55.250;37.668;2024-03-02T14:46:13;40.50;;;24.93;;
45368;SDS011;51342;55.250;37.668;2024-03-02T14:48:45;38.50;;;23.93;;
45368;SDS011;51342;55.250;37.668;2024-03-02T14:51:17;39.83;;;24.37;;
45368;SDS011;51342;55.250;37.668;2024-03-02T14:53:48;42.03;;;24.63;;
45368;SDS011;51342;55.250;37.668;2024-03-02T14:56:21;49.97;;;27.87;;
45368;SDS011;51342;55.250;37.668;2024-03-02T14:58:53;43.73;;;24.27;;
45368;SDS011;51342;55.250;37.668;2024-03-02T15:01:24;40.73;;;23.60;;
45368;SDS011;51342;55.250;37.668;2024-03-02T15:03:56;46.27;;;28.07;;